Time;durP1;ratioP1;P1;durP2;ratioP2;P2;SDS_P1;SDS_P2;PMS_P1;PMS_P2;Temp;Humidity;BMP_temperature;BMP_pressure;BME280_temperature;BME280_humidity;BME280_pressure;Samples;Min_cycle;Max_cycle;Signal;HPM_P1;HPM_P2
2022/04/19 00:00:13;;;;;;;1.10;1.10;;;;;;;21.84;32.83;101310.56;5011614;28;20038;-70
2022/04/19 00:02:39;;;;;;;1.48;1.38;;;;;;;21.83;32.90;101308.88;5010478;28;20058;-70
2022/04/19 00:05:04;;;;;;;1.50;1.40;;;;;;;21.82;32.85;101307.25;4994729;28;20037;-70
2022/04/19 00:07:30;;;;;;;1.30;1.20;;;;;;;21.82;33.07;101307.25;5011518;28;20038;-69
2022/04/19 00:09:55;;;;;;;1.40;1.30;;;;;;;21.82;33.07;101298.97;5011225;28;20535;-69
2022/04/19 00:12:22;;;;;;;0.80;0.80;;;;;;;21.81;32.91;101294.53;5011519;28;20477;-69
2022/04/19 00:14:47;;;;;;;1.25;1.17;;;;;;;21.81;32.82;101285.44;5011459;28;20041;-69
2022/04/19 00:17:13;;;;;;;1.23;1.13;;;;;;;21.81;33.16;101297.31;5010288;28;20382;-69
2022/04/19 00:19:39;;;;;;;1.08;1.08;;;;;;;21.80;32.86;101294.81;5011356;28;20058;-69
2022/04/19 00:22:05;;;;;;;1.58;1.48;;;;;;;21.79;33.19;101293.16;5011340;28;20026;-69
2022/04/19 00:24:30;;;;;;;1.38;1.27;;;;;;;21.79;32.98;101298.69;5011323;28;20061;-69
2022/04/19 00:26:56;;;;;;;1.15;1.15;;;;;;;21.79;33.14;101301.44;5011566;28;20416;-70
2022/04/19 00:29:22;;;;;;;1.30;1.20;;;;;;;21.77;33.05;101296.19;5010109;28;20030;-69
2022/04/19 00:31:47;;;;;;;1.00;1.00;;;;;;;21.77;32.91;101287.91;5011216;28;20087;-69
2022/04/19 00:34:12;;;;;;;0.93;0.93;;;;;;;21.77;32.97;101285.16;5010038;28;20034;-69
2022/04/19 00:36:38;;;;;;;1.42;1.33;;;;;;;21.77;33.17;101281.56;5009874;28;20038;-70
2022/04/19 00:39:04;;;;;;;1.20;1.10;;;;;;;21.75;33.20;101270.81;5011137;28;20034;-70
2022/04/19 00:41:29;;;;;;;1.20;1.10;;;;;;;21.75;33.12;101279.09;5010622;28;20473;-70
2022/04/19 00:43:55;;;;;;;1.40;1.30;;;;;;;21.75;33.31;101284.63;5010736;28;20034;-69
2022/04/19 00:46:20;;;;;;;2.25;1.15;;;;;;;21.75;33.18;101276.34;5011509;28;20038;-69
2022/04/19 00:48:46;;;;;;;1.02;0.93;;;;;;;21.75;33.17;101281.00;5009569;28;20060;-69
2022/04/19 00:51:12;;;;;;;1.33;1.23;;;;;;;21.72;33.30;101282.41;5011024;28;20038;-69
2022/04/19 00:53:38;;;;;;;1.33;1.23;;;;;;;21.72;33.40;101287.94;5010935;28;20038;-69
2022/04/19 00:56:03;;;;;;;1.30;1.20;;;;;;;21.73;33.19;101273.00;5009827;28;20452;-69
2022/04/19 00:58:29;;;;;;;1.33;1.23;;;;;;;21.72;33.17;101282.41;5010867;28;20034;-70
2022/04/19 01:00:55;;;;;;;1.55;1.30;;;;;;;21.70;33.26;101277.19;5010921;28;20041;-69
2022/04/19 01:03:21;;;;;;;1.02;1.02;;;;;;;21.71;33.15;101278.00;5010817;28;20046;-70
2022/04/19 01:05:47;;;;;;;1.10;1.10;;;;;;;21.70;33.53;101284.63;5010767;28;20081;-70
2022/04/19 01:08:14;;;;;;;1.10;1.10;;;;;;;21.69;33.45;101278.28;5011252;28;20120;-69
2022/04/19 01:10:42;;;;;;;1.38;1.27;;;;;;;21.69;33.49;101286.56;5009473;28;20030;-69
2022/04/19 01:13:17;;;;;;;1.27;1.25;;;;;;;21.69;33.33;101277.47;5010621;28;20034;-69
2022/04/19 01:15:47;;;;;;;1.20;1.10;;;;;;;21.69;33.29;101275.50;5011009;28;20056;-70
2022/04/19 01:18:14;;;;;;;1.10;1.10;;;;;;;21.68;33.47;101273.03;5009483;28;20038;-70
2022/04/19 01:20:41;;;;;;;1.15;1.10;;;;;;;21.68;33.34;101273.84;5010606;28;20038;-70
2022/04/19 01:23:07;;;;;;;1.20;1.20;;;;;;;21.68;33.26;101262.00;5010590;28;20161;-69
2022/04/19 01:25:33;;;;;;;1.17;1.17;;;;;;;21.67;33.70;101266.69;5010523;28;20041;-69
2022/04/19 01:27:58;;;;;;;1.25;1.15;;;;;;;21.67;33.68;101263.94;5010778;28;20086;-69
2022/04/19 01:30:24;;;;;;;1.55;1.45;;;;;;;21.66;33.43;101262.28;5010524;28;20037;-69
2022/04/19 01:32:49;;;;;;;1.23;1.10;;;;;;;21.67;33.54;101263.09;5010447;28;20034;-69
2022/04/19 01:35:17;;;;;;;1.40;1.30;;;;;;;21.66;33.17;101264.22;5011011;28;20036;-69
2022/04/19 01:37:48;;;;;;;1.30;1.20;;;;;;;21.66;33.40;101265.03;5010381;28;20037;-69
2022/04/19 01:40:17;;;;;;;1.20;1.20;;;;;;;21.65;33.41;101263.38;5010157;28;20492;-69
2022/04/19 01:42:48;;;;;;;1.38;1.10;;;;;;;21.65;33.34;101259.78;5010259;28;20038;-69
2022/04/19 01:45:18;;;;;;;1.50;1.38;;;;;;;21.66;33.64;101266.97;5011298;28;20072;-69
2022/04/19 01:47:44;;;;;;;1.20;1.20;;;;;;;21.64;33.30;101261.75;5013647;28;20054;-69
2022/04/19 01:50:12;;;;;;;1.30;1.20;;;;;;;21.65;33.45;101259.78;5012477;28;20442;-69
2022/04/19 01:52:38;;;;;;;1.30;1.20;;;;;;;21.65;33.17;101262.56;5014297;28;20029;-69
2022/04/19 01:55:05;;;;;;;1.45;1.35;;;;;;;21.64;33.47;101258.13;5012324;28;20030;-69
2022/04/19 01:57:30;;;;;;;1.15;1.15;;;;;;;21.64;33.43;101260.91;5013398;28;20142;-69
2022/04/19 01:59:56;;;;;;;1.60;1.50;;;;;;;21.64;33.43;101266.41;5012283;28;20538;-69
2022/04/19 02:02:23;;;;;;;1.42;1.33;;;;;;;21.62;33.42;101254.84;5013723;28;20033;-69
2022/04/19 02:04:50;;;;;;;1.38;1.30;;;;;;;21.63;33.40;101267.50;5013755;28;20104;-69
2022/04/19 02:07:16;;;;;;;1.52;1.42;;;;;;;21.62;33.38;101261.16;5013352;28;20052;-70
2022/04/19 02:09:41;;;;;;;1.38;1.27;;;;;;;21.60;33.57;101252.34;5013062;28;20030;-69
2022/04/19 02:12:07;;;;;;;1.33;1.23;;;;;;;21.61;33.38;101259.50;5012109;28;20066;-69
2022/04/19 02:14:33;;;;;;;1.02;1.02;;;;;;;21.61;33.45;101255.94;5012899;28;20116;-69
2022/04/19 02:16:58;;;;;;;1.42;1.33;;;;;;;21.61;33.22;101255.94;5013116;28;20117;-69
2022/04/19 02:19:23;;;;;;;1.38;1.27;;;;;;;21.60;33.37;101251.50;5012023;28;20045;-69
2022/04/19 02:21:49;;;;;;;1.35;1.27;;;;;;;21.60;33.44;101254.28;5012526;28;20466;-69
2022/04/19 02:24:14;;;;;;;1.17;1.15;;;;;;;21.60;33.54;101254.28;5011984;28;20056;-70
2022/04/19 02:26:40;;;;;;;1.52;1.42;;;;;;;21.60;33.73;101254.28;5011968;28;20030;-69
2022/04/19 02:29:05;;;;;;;1.60;1.50;;;;;;;21.58;33.36;101243.50;5011901;28;20034;-69
2022/04/19 02:31:30;;;;;;;1.13;1.13;;;;;;;21.59;33.61;101238.84;5012991;28;20461;-70
2022/04/19 02:33:58;;;;;;;1.30;1.30;;;;;;;21.58;33.42;101242.69;5012012;28;20378;-69
2022/04/19 02:36:27;;;;;;;1.20;1.20;;;;;;;21.57;33.57;101239.13;5011640;28;20041;-70
2022/04/19 02:38:52;;;;;;;1.17;1.17;;;;;;;21.57;33.58;101241.88;5012529;28;20045;-70
2022/04/19 02:41:17;;;;;;;1.63;1.33;;;;;;;21.56;33.68;101245.72;5013073;28;20381;-70
2022/04/19 02:43:43;;;;;;;1.45;1.40;;;;;;;21.56;33.68;101242.97;5013302;28;20083;-70
2022/04/19 02:46:09;;;;;;;1.30;1.30;;;;;;;21.55;33.69;101242.16;5012793;28;20126;-70
2022/04/19 02:48:34;;;;;;;1.50;1.40;;;;;;;21.55;33.70;101244.91;5013025;28;20041;-70
2022/04/19 02:51:00;;;;;;;1.60;1.50;;;;;;;21.54;33.45;101237.72;5012758;28;20026;-70
2022/04/19 02:53:26;;;;;;;1.20;1.10;;;;;;;21.54;33.87;101234.97;5011449;28;20038;-70
2022/04/19 02:55:51;;;;;;;1.38;1.38;;;;;;;21.53;33.62;101230.53;5010408;28;20034;-70
2022/04/19 02:58:17;;;;;;;1.15;1.15;;;;;;;21.53;33.52;101238.00;5012585;28;20088;-70
2022/04/19 03:00:43;;;;;;;1.30;1.20;;;;;;;21.52;33.61;101234.41;5012598;28;20037;-70
2022/04/19 03:03:09;;;;;;;1.30;1.20;;;;;;;21.53;33.65;101232.50;5012464;28;20431;-70
2022/04/19 03:05:38;;;;;;;1.48;1.38;;;;;;;21.52;33.53;101237.16;5012489;28;20471;-70
2022/04/19 03:08:04;;;;;;;1.50;1.40;;;;;;;21.52;33.63;101236.34;5013218;28;20030;-70
2022/04/19 03:10:29;;;;;;;1.48;1.38;;;;;;;21.50;33.74;101231.13;5012949;28;20060;-72
2022/04/19 03:12:54;;;;;;;1.52;1.42;;;;;;;21.52;33.51;101233.59;5012010;28;20465;-70
2022/04/19 03:15:20;;;;;;;1.55;1.45;;;;;;;21.50;33.61;101228.34;5012395;28;20172;-70
2022/04/19 03:17:45;;;;;;;1.45;1.35;;;;;;;21.50;33.59;101233.88;5012193;28;20037;-70
2022/04/19 03:20:11;;;;;;;1.52;1.42;;;;;;;21.49;33.68;101229.41;5012312;28;20382;-70
2022/04/19 03:28:05;;;;;;;1.27;1.17;;;;;;;21.48;33.61;101236.06;5011966;28;20508;-70
2022/04/19 03:30:30;;;;;;;1.58;1.48;;;;;;;21.48;33.60;101226.94;5011881;28;20105;-70
2022/04/19 03:32:56;;;;;;;1.30;1.30;;;;;;;21.48;33.82;101226.94;5011127;28;20034;-70
2022/04/19 03:35:21;;;;;;;1.50;1.40;;;;;;;21.48;33.85;101237.97;5012601;28;20359;-70
2022/04/19 03:37:47;;;;;;;1.30;1.20;;;;;;;21.47;33.52;101239.91;5011591;28;20405;-70
2022/04/19 03:40:13;;;;;;;1.55;1.45;;;;;;;21.47;33.50;101236.34;5011645;28;20038;-69
2022/04/19 03:42:41;;;;;;;1.13;1.10;;;;;;;21.46;33.49;101229.97;5012156;28;20045;-69
2022/04/19 03:45:11;;;;;;;1.25;1.23;;;;;;;21.46;33.44;101229.16;5012707;28;20034;-69
2022/04/19 03:47:37;;;;;;;1.40;1.30;;;;;;;21.45;33.60;101228.34;5010550;28;20037;-69
2022/04/19 03:50:03;;;;;;;1.40;1.30;;;;;;;21.46;33.54;101229.16;5011817;28;20034;-69
2022/04/19 03:52:28;;;;;;;1.20;1.20;;;;;;;21.45;33.72;101228.34;5011792;28;20033;-70
2022/04/19 03:54:54;;;;;;;1.42;1.33;;;;;;;21.44;33.42;101223.94;4994214;28;20036;-70
2022/04/19 03:57:19;;;;;;;1.17;1.17;;;;;;;21.44;33.48;101228.63;5011654;28;20038;-70
2022/04/19 03:59:45;;;;;;;1.67;1.58;;;;;;;21.43;33.57;101233.31;5010201;28;20073;-69
2022/04/19 04:02:10;;;;;;;1.20;1.20;;;;;;;21.44;33.66;101234.16;5011546;28;20034;-70
2022/04/19 04:04:36;;;;;;;1.52;1.30;;;;;;;21.43;33.80;101233.31;5011894;28;20486;-70
2022/04/19 04:07:06;;;;;;;1.45;1.35;;;;;;;21.43;33.75;101232.47;5011554;28;20080;-69
2022/04/19 04:09:32;;;;;;;1.45;1.35;;;;;;;21.42;33.86;101234.44;5011528;28;20026;-70
2022/04/19 04:12:09;;;;;;;1.27;1.23;;;;;;;21.43;33.58;101240.75;4994292;28;20026;-69
2022/04/19 04:14:44;;;;;;;1.10;1.10;;;;;;;21.43;33.68;101230.53;5010974;28;20068;-69
2022/04/19 04:17:10;;;;;;;1.30;1.20;;;;;;;21.41;33.96;101237.44;5011368;28;20040;-70
2022/04/19 04:19:35;;;;;;;1.48;1.25;;;;;;;21.41;33.84;101232.75;5011674;28;20042;-69
2022/04/19 04:22:01;;;;;;;1.50;1.40;;;;;;;21.40;34.00;101231.09;5011345;28;20049;-70
2022/04/19 04:24:27;;;;;;;1.60;1.33;;;;;;;21.40;33.81;101242.16;5011313;28;20530;-70
2022/04/19 04:26:52;;;;;;;1.33;1.23;;;;;;;21.42;33.87;101250.13;5011256;28;20069;-70
2022/04/19 04:29:17;;;;;;;1.10;1.10;;;;;;;21.39;33.77;101248.75;5011522;28;20079;-69
2022/04/19 04:31:43;;;;;;;1.40;1.33;;;;;;;21.39;33.87;101237.72;5011225;28;20037;-70
2022/04/19 04:34:08;;;;;;;1.38;1.30;;;;;;;21.39;33.97;101248.75;5011139;28;20033;-70
2022/04/19 04:36:34;;;;;;;1.40;1.30;;;;;;;21.39;33.82;101246.00;5009704;28;20030;-70
2022/04/19 04:39:00;;;;;;;1.35;1.25;;;;;;;21.38;33.94;101239.66;5010850;28;20469;-70
2022/04/19 04:41:25;;;;;;;1.30;1.30;;;;;;;21.38;34.04;101245.19;5010875;28;20108;-69
2022/04/19 04:43:51;;;;;;;1.23;1.15;;;;;;;21.39;33.85;101248.75;5010948;28;20034;-70
2022/04/19 04:51:44;;;;;;;1.23;0.98;;;;;;;21.36;33.76;101244.66;5010767;28;20045;-70
2022/04/19 04:54:09;;;;;;;1.40;1.30;;;;;;;21.36;33.84;101247.41;5010988;28;20394;-69
2022/04/19 04:56:35;;;;;;;1.10;1.10;;;;;;;21.36;33.98;101247.41;5010599;28;20466;-70
2022/04/19 04:59:00;;;;;;;1.40;1.30;;;;;;;21.36;33.86;101244.66;5010880;28;20030;-70
2022/04/19 05:01:25;;;;;;;1.40;1.30;;;;;;;21.36;33.78;101247.41;5011702;28;20446;-69
2022/04/19 05:03:51;;;;;;;1.25;1.15;;;;;;;21.36;33.95;101249.31;5010552;28;20046;-69
2022/04/19 05:06:17;;;;;;;1.42;1.33;;;;;;;21.35;33.67;101242.97;5010819;28;20042;-69
2022/04/19 05:08:42;;;;;;;1.52;1.42;;;;;;;21.36;33.72;101254.84;5009597;28;20034;-70
2022/04/19 05:11:08;;;;;;;1.70;1.60;;;;;;;21.36;33.90;101246.56;5011039;28;20110;-70
2022/04/19 05:13:33;;;;;;;1.38;1.27;;;;;;;21.36;33.98;101247.41;5010663;28;20113;-70
2022/04/19 05:15:58;;;;;;;1.58;1.48;;;;;;;21.36;33.93;101249.31;5009106;28;20073;-68
2022/04/19 05:18:25;;;;;;;1.63;1.52;;;;;;;21.36;33.85;101255.69;5010425;28;20026;-68
2022/04/19 05:20:50;;;;;;;2.08;1.88;;;;;;;21.34;32.19;101260.63;5014197;28;20038;-68
2022/04/19 05:23:16;;;;;;;2.88;2.65;;;;;;;21.14;30.99;101258.75;5014085;28;20037;-70
2022/04/19 05:25:41;;;;;;;3.78;3.47;;;;;;;20.87;30.94;101263.69;5014071;28;20034;-70
2022/04/19 05:28:07;;;;;;;3.90;3.60;;;;;;;20.62;30.59;101259.78;5012821;28;20036;-71
2022/04/19 05:30:33;;;;;;;4.38;3.97;;;;;;;20.43;31.26;101268.56;5014475;28;20030;-71
2022/04/19 05:32:58;;;;;;;4.40;4.00;;;;;;;20.30;30.90;101260.81;5028859;28;20034;-70
2022/04/19 05:35:23;;;;;;;4.82;4.32;;;;;;;20.15;30.84;101262.41;5013202;28;20038;-70
2022/04/19 05:37:49;;;;;;;4.90;4.40;;;;;;;20.02;30.83;101264.81;5013787;28;20377;-70
2022/04/19 05:40:14;;;;;;;5.65;4.85;;;;;;;19.89;30.95;101266.16;5013557;28;20025;-70
2022/04/19 05:42:40;;;;;;;5.75;4.78;;;;;;;19.78;30.81;101260.59;5013513;28;20394;-70
2022/04/19 05:45:06;;;;;;;5.22;4.70;;;;;;;19.67;31.06;101261.59;5012443;28;20066;-70
2022/04/19 05:47:31;;;;;;;5.18;4.68;;;;;;;19.58;31.02;101258.53;5013891;28;20037;-70
2022/04/19 05:49:57;;;;;;;6.25;4.95;;;;;;;19.51;31.03;101266.19;5012433;28;20038;-70
2022/04/19 05:52:22;;;;;;;5.60;5.10;;;;;;;19.44;31.24;101258.16;5013907;28;20580;-69
2022/04/19 05:54:48;;;;;;;5.68;5.05;;;;;;;19.38;31.12;101269.38;5014352;28;20034;-69
2022/04/19 05:57:13;;;;;;;5.50;5.00;;;;;;;19.34;30.99;101271.00;5013757;28;20034;-69
2022/04/19 05:59:38;;;;;;;5.80;5.30;;;;;;;19.30;31.05;101269.91;5013264;28;20389;-70
2022/04/19 06:04:54;;;;;;;5.15;4.72;;;;;;;19.23;31.17;101281.94;5014352;28;20127;-70
2022/04/19 06:07:27;;;;;;;5.63;5.03;;;;;;;19.21;31.63;101275.88;5014178;28;20060;-70
2022/04/19 06:09:52;;;;;;;5.75;4.97;;;;;;;19.18;31.11;101278.34;5013891;28;20093;-69
2022/04/19 06:12:18;;;;;;;5.53;5.03;;;;;;;19.17;31.07;101277.50;5012408;28;20462;-70
2022/04/19 06:14:44;;;;;;;5.35;4.85;;;;;;;19.16;31.05;101277.75;5013184;28;20462;-70
2022/04/19 06:17:14;;;;;;;5.78;5.10;;;;;;;19.14;31.20;101280.75;5013102;28;20477;-70
2022/04/19 06:19:41;;;;;;;6.10;5.30;;;;;;;19.14;30.91;101288.19;5013400;28;20450;-70
2022/04/19 06:22:06;;;;;;;6.20;4.93;;;;;;;19.15;31.25;101287.09;5013081;28;20074;-71
2022/04/19 06:24:31;;;;;;;5.57;5.03;;;;;;;19.15;30.87;101290.69;5013093;28;20117;-75
2022/04/19 06:26:57;;;;;;;5.50;4.90;;;;;;;19.20;31.29;101287.16;5012101;28;20048;-72
2022/04/19 06:29:22;;;;;;;5.80;4.53;;;;;;;19.31;31.30;101291.63;5012473;28;20042;-72
2022/04/19 06:31:48;;;;;;;5.13;4.68;;;;;;;19.44;31.38;101293.09;5012868;28;20052;-71
2022/04/19 06:34:14;;;;;;;4.68;4.18;;;;;;;19.57;31.17;101280.81;5011856;28;20496;-71
2022/04/19 06:36:39;;;;;;;5.00;4.50;;;;;;;19.70;31.35;101282.25;5012873;28;20034;-71
2022/04/19 06:39:04;;;;;;;4.72;4.30;;;;;;;19.80;31.36;101291.44;5013141;28;20125;-71
2022/04/19 06:41:30;;;;;;;4.53;4.07;;;;;;;19.92;31.26;101293.16;5012869;28;20037;-71
2022/04/19 06:43:58;;;;;;;4.57;3.88;;;;;;;19.99;31.20;101293.75;5011582;28;20041;-71
2022/04/19 06:46:26;;;;;;;4.05;3.65;;;;;;;20.06;31.24;101288.78;5012626;28;20065;-71
2022/04/19 06:48:59;;;;;;;3.70;3.40;;;;;;;20.13;31.34;101292.13;5011848;28;20087;-71
2022/04/19 06:51:25;;;;;;;;;;;;;;;20.21;31.50;101285.31;5013229;28;20034;-71
2022/04/19 06:53:51;;;;;;;3.67;3.38;;;;;;;20.23;31.27;101291.34;5012695;28;19910;-71
2022/04/19 06:56:16;;;;;;;3.67;3.38;;;;;;;20.28;31.22;101296.06;5012591;28;20394;-70
2022/04/19 06:58:43;;;;;;;4.10;3.70;;;;;;;20.32;31.43;101292.50;5012615;28;20070;-71
2022/04/19 07:01:12;;;;;;;3.92;3.53;;;;;;;20.35;31.50;101293.88;5012513;28;20086;-71
2022/04/19 07:03:37;;;;;;;3.90;3.60;;;;;;;20.38;31.57;101290.59;5012191;28;20061;-71
2022/04/19 07:06:04;;;;;;;3.92;3.10;;;;;;;20.41;31.46;101295.53;5012501;28;20029;-71
2022/04/19 07:08:30;;;;;;;3.75;3.45;;;;;;;20.44;31.66;101303.28;5012468;28;20056;-70
2022/04/19 07:10:56;;;;;;;3.75;3.45;;;;;;;20.47;31.57;101293.63;5012436;28;20390;-71
2022/04/19 07:13:22;;;;;;;3.40;3.10;;;;;;;20.50;31.58;101295.84;5011636;28;20038;-71
2022/04/19 07:15:48;;;;;;;3.53;3.20;;;;;;;20.51;31.70;101298.34;5012354;28;20428;-70
2022/04/19 07:18:14;;;;;;;3.70;3.40;;;;;;;20.53;31.71;101294.50;5011004;28;20037;-71
2022/04/19 07:28:54;;;;;;;3.08;2.80;;;;;;;20.60;32.00;101300.56;5012758;28;20557;-71
2022/04/19 07:31:19;;;;;;;3.25;2.97;;;;;;;20.62;31.96;101298.38;5012085;28;20117;-71
2022/04/19 07:33:45;;;;;;;3.20;2.90;;;;;;;20.63;32.02;101305.53;5012010;28;20374;-71
2022/04/19 07:36:11;;;;;;;3.00;2.70;;;;;;;20.64;32.11;101302.50;5011960;28;20030;-71
2022/04/19 07:38:42;;;;;;;3.25;2.95;;;;;;;20.66;32.09;101308.59;5011674;28;20034;-71
2022/04/19 07:41:08;;;;;;;3.00;2.80;;;;;;;20.67;32.21;101306.69;5012635;28;20037;-71
2022/04/19 07:43:33;;;;;;;3.00;2.70;;;;;;;20.68;32.12;101314.69;5011854;28;20390;-71
2022/04/19 07:45:58;;;;;;;3.08;2.80;;;;;;;20.70;32.31;101313.56;5011910;28;20034;-70
2022/04/19 07:48:24;;;;;;;2.72;2.53;;;;;;;20.70;32.28;101306.16;5012169;28;20053;-70
2022/04/19 07:50:50;;;;;;;2.67;2.47;;;;;;;20.72;32.29;101305.88;5011816;28;20117;-70
2022/04/19 07:53:16;;;;;;;2.63;2.42;;;;;;;20.73;32.36;101307.50;5011196;28;20435;-71
2022/04/19 07:55:41;;;;;;;2.95;2.67;;;;;;;20.74;32.07;101311.94;5011453;28;20421;-71
2022/04/19 07:58:07;;;;;;;2.78;2.58;;;;;;;20.75;31.47;101310.84;5011900;28;20125;-70
2022/04/19 08:00:33;;;;;;;2.60;2.40;;;;;;;20.77;31.71;101316.91;5011933;28;20038;-71
2022/04/19 08:02:58;;;;;;;2.95;2.70;;;;;;;20.77;31.72;101314.97;5010785;28;20046;-70
2022/04/19 08:05:25;;;;;;;2.60;2.38;;;;;;;20.78;31.23;101311.09;5012175;28;20030;-70
2022/04/19 08:07:50;;;;;;;2.60;2.40;;;;;;;20.79;31.12;101314.72;5011558;28;20041;-71
2022/04/19 08:10:17;;;;;;;3.42;2.88;;;;;;;20.79;31.07;101304.50;5011117;28;20056;-71
2022/04/19 08:12:43;;;;;;;3.28;2.63;;;;;;;20.81;30.61;101306.97;5011442;28;20033;-71
2022/04/19 08:15:09;;;;;;;2.70;2.50;;;;;;;20.81;30.73;101307.81;5011368;28;20030;-71
2022/04/19 08:17:36;;;;;;;2.65;2.45;;;;;;;20.82;30.78;101301.19;5011634;28;20125;-70
2022/04/19 08:20:03;;;;;;;2.72;2.53;;;;;;;20.83;30.43;101311.13;5010018;28;20030;-71
2022/04/19 08:22:28;;;;;;;2.80;2.60;;;;;;;20.83;30.63;101305.63;5011607;28;20075;-71
2022/04/19 08:24:54;;;;;;;3.00;2.50;;;;;;;20.85;30.59;101300.63;5011370;28;20079;-71
2022/04/19 08:27:20;;;;;;;2.60;2.40;;;;;;;20.85;30.66;101299.81;5011582;28;20416;-71
2022/04/19 08:29:46;;;;;;;2.55;2.35;;;;;;;20.87;30.47;101296.78;5011544;28;20084;-70
2022/04/19 08:32:12;;;;;;;2.55;2.35;;;;;;;20.87;30.53;101296.78;5011226;28;20041;-70
2022/04/19 08:34:38;;;;;;;3.25;2.55;;;;;;;20.88;30.42;101295.69;5012003;28;20487;-70
2022/04/19 08:37:06;;;;;;;2.55;2.35;;;;;;;20.88;30.48;101292.94;5009880;28;20030;-70
2022/04/19 08:39:31;;;;;;;2.67;2.47;;;;;;;20.89;30.38;101306.44;5011156;28;20038;-71
2022/04/19 08:41:57;;;;;;;3.20;2.50;;;;;;;20.89;30.44;101292.66;4993633;28;20045;-71
2022/04/19 08:44:22;;;;;;;2.50;2.30;;;;;;;20.90;30.44;101302.56;5010995;28;20034;-71
2022/04/19 08:46:48;;;;;;;2.60;2.40;;;;;;;20.91;30.42;101292.38;5011358;28;20121;-71
2022/04/19 08:49:16;;;;;;;2.10;2.00;;;;;;;20.92;30.37;101294.03;5011606;28;20045;-70
2022/04/19 08:51:42;;;;;;;2.20;2.10;;;;;;;20.93;30.59;101312.25;5011535;28;20040;-71
2022/04/19 08:59:40;;;;;;;2.25;2.05;;;;;;;20.94;30.87;101300.94;5015042;28;20040;-70
2022/04/19 09:02:06;;;;;;;2.33;2.13;;;;;;;20.93;30.68;101299.25;5014394;28;20026;-70
2022/04/19 09:04:31;;;;;;;2.63;2.42;;;;;;;20.95;30.16;101310.03;5014637;28;20389;-70
2022/04/19 09:07:00;;;;;;;2.20;2.10;;;;;;;20.95;30.44;101291.56;5014327;28;20038;-70
2022/04/19 09:09:28;;;;;;;2.20;2.10;;;;;;;20.96;30.16;101297.91;5014290;28;20030;-71
2022/04/19 09:12:04;;;;;;;1.95;1.85;;;;;;;20.95;30.07;101297.09;5013959;28;20030;-70
2022/04/19 09:14:30;;;;;;;2.10;2.00;;;;;;;20.96;30.04;101290.44;5014394;28;20026;-71
2022/04/19 09:17:08;;;;;;;2.30;2.10;;;;;;;20.97;30.60;101286.59;5014096;28;20401;-71
2022/04/19 09:19:34;;;;;;;2.20;2.00;;;;;;;20.98;29.97;101284.69;5013462;28;20473;-71
2022/04/19 09:21:59;;;;;;;1.92;1.83;;;;;;;20.98;29.97;101279.16;5014058;28;20462;-71
2022/04/19 09:24:26;;;;;;;2.25;2.05;;;;;;;20.97;30.16;101308.66;5014049;28;20034;-71
2022/04/19 09:26:53;;;;;;;2.03;1.83;;;;;;;20.98;30.24;101282.75;5013971;28;20129;-71
2022/04/19 09:29:21;;;;;;;1.88;1.70;;;;;;;20.99;29.83;101272.53;5013979;28;20080;-70
2022/04/19 09:31:58;;;;;;;2.10;1.90;;;;;;;21.00;29.92;101287.97;5013250;28;20042;-70
2022/04/19 09:34:30;;;;;;;1.80;1.70;;;;;;;20.99;29.89;101281.66;5013949;28;20033;-71
2022/04/19 09:37:12;;;;;;;1.92;1.83;;;;;;;21.02;30.27;101280.25;5014057;28;20117;-70
2022/04/19 09:39:40;;;;;;;2.15;1.70;;;;;;;21.00;29.65;101268.66;5014124;28;20045;-70
2022/04/19 09:42:08;;;;;;;1.90;1.80;;;;;;;21.01;29.64;101278.59;5012529;28;20378;-71
2022/04/19 09:44:44;;;;;;;2.00;1.80;;;;;;;21.02;29.88;101280.25;5012119;28;20026;-71
2022/04/19 09:47:11;;;;;;;1.70;1.60;;;;;;;21.01;30.02;101273.91;5013286;28;20034;-70
2022/04/19 09:49:49;;;;;;;1.88;1.77;;;;;;;21.04;30.09;101280.81;5014488;28;20366;-71
2022/04/19 09:52:38;;;;;;;1.80;1.70;;;;;;;21.05;30.23;101274.16;5013614;28;20086;-70
2022/04/19 09:55:13;;;;;;;1.75;1.65;;;;;;;21.06;29.81;101275.84;5013952;28;20400;-70
2022/04/19 09:57:40;;;;;;;1.80;1.70;;;;;;;21.06;29.81;101272.25;5013833;28;20030;-70
2022/04/19 10:00:12;;;;;;;1.80;1.70;;;;;;;21.07;30.01;101271.97;5013979;28;20026;-70
2022/04/19 10:08:20;;;;;;;1.55;1.45;;;;;;;21.08;29.77;101261.75;5012412;28;20049;-71
2022/04/19 10:10:51;;;;;;;1.63;1.52;;;;;;;21.08;29.76;101254.34;5012733;28;20121;-71
2022/04/19 10:13:19;;;;;;;1.58;1.48;;;;;;;21.10;29.73;101254.06;5012361;28;20082;-72
2022/04/19 10:15:45;;;;;;;1.58;1.48;;;;;;;21.10;30.15;101259.56;5011796;28;20034;-71
2022/04/19 10:18:10;;;;;;;1.58;1.48;;;;;;;21.12;29.76;101260.13;5011754;28;20430;-71
2022/04/19 10:20:39;;;;;;;1.60;1.50;;;;;;;21.12;29.79;101268.38;5012100;28;20041;-71
2022/04/19 10:23:08;;;;;;;1.85;1.50;;;;;;;21.12;29.83;101260.94;5012088;28;20082;-71
2022/04/19 10:25:43;;;;;;;1.60;1.50;;;;;;;21.14;29.73;101257.91;5012074;28;20488;-69
2022/04/19 10:28:09;;;;;;;2.05;1.52;;;;;;;21.11;29.64;101252.94;5012343;28;20034;-71
2022/04/19 10:30:36;;;;;;;1.60;1.50;;;;;;;21.06;28.83;101261.22;5012007;28;20033;-72
2022/04/19 10:33:39;;;;;;;2.20;2.00;;;;;;;21.00;29.36;101258.44;5011936;28;20037;-71
2022/04/19 10:36:27;;;;;;;2.03;1.83;;;;;;;20.92;28.93;101256.25;5010928;28;20034;-73
2022/04/19 10:39:11;;;;;;;2.38;2.17;;;;;;;20.89;29.34;101248.53;5011243;28;20034;-79
2022/04/19 10:41:52;;;;;;;3.10;2.00;;;;;;;20.87;29.07;101247.97;5012125;28;20034;-70
2022/04/19 10:44:35;;;;;;;2.28;2.08;;;;;;;20.87;29.13;101249.91;5010455;28;20050;-70
2022/04/19 10:47:12;;;;;;;2.58;2.38;;;;;;;20.87;28.56;101249.91;5012627;28;20046;-70
2022/04/19 10:50:05;;;;;;;2.50;2.30;;;;;;;20.87;28.84;101236.94;5012282;28;20053;-70
2022/04/19 10:52:37;;;;;;;2.30;2.10;;;;;;;20.87;28.44;101241.63;5010789;28;20038;-71
2022/04/19 10:55:11;;;;;;;2.42;2.20;;;;;;;20.87;28.56;101244.41;5011977;28;20370;-71
2022/04/19 10:58:06;;;;;;;2.42;2.22;;;;;;;20.88;28.83;101246.06;5011587;28;20029;-72
2022/04/19 11:00:35;;;;;;;3.40;2.20;;;;;;;20.83;28.31;101238.59;5011700;28;20434;-72
2022/04/19 11:03:08;;;;;;;2.30;2.10;;;;;;;20.82;28.20;101228.69;5005281;28;167214;-70
2022/04/19 11:05:41;;;;;;;1.83;1.73;;;;;;;20.81;27.81;101227.84;4996651;28;20061;-71
2022/04/19 11:08:24;;;;;;;2.45;2.20;;;;;;;20.84;28.43;101224.53;5012783;28;20109;-72
2022/04/19 11:10:57;;;;;;;2.33;2.00;;;;;;;20.82;27.65;101214.91;5012432;28;20038;-71
2022/04/19 11:13:23;;;;;;;1.98;1.85;;;;;;;20.81;27.68;101222.31;5012904;28;20034;-71
2022/04/19 11:16:21;;;;;;;1.92;1.75;;;;;;;20.82;28.12;101223.97;5012131;28;20504;-72
2022/04/19 11:18:46;;;;;;;2.75;1.80;;;;;;;20.82;27.57;101218.47;5011179;28;20041;-72
2022/04/19 11:21:12;;;;;;;2.20;2.00;;;;;;;20.84;27.77;101216.25;5012280;28;20156;-72
2022/04/19 11:23:42;;;;;;;2.45;2.25;;;;;;;20.85;28.00;101214.34;5012210;28;20462;-72
2022/04/19 11:26:27;;;;;;;3.30;2.10;;;;;;;20.85;27.81;101217.91;5011955;28;20025;-72
2022/04/19 11:29:08;;;;;;;2.20;2.00;;;;;;;20.88;28.24;101207.44;5011810;28;20394;-72
2022/04/19 11:31:34;;;;;;;2.50;2.20;;;;;;;20.86;28.06;101202.22;5012428;28;20037;-72
2022/04/19 11:34:00;;;;;;;2.25;1.92;;;;;;;20.87;28.02;101203.03;5012342;28;20034;-72
2022/04/19 11:36:26;;;;;;;2.47;2.25;;;;;;;20.89;27.78;101209.09;5011982;28;20386;-71
2022/04/19 11:38:52;;;;;;;2.40;2.20;;;;;;;20.88;28.07;101215.72;5012041;28;20022;-71
2022/04/19 11:46:44;;;;;;;2.13;1.90;;;;;;;20.86;27.89;101218.75;5012447;28;20048;-71
2022/04/19 11:47:02;;;;;;;3.00;2.20;;;;;;;20.86;27.75;101199.47;5011578;28;20079;-71
2022/04/19 11:49:27;;;;;;;2.40;2.17;;;;;;;20.88;28.12;101212.97;5010662;28;20063;-71
2022/04/19 11:51:58;;;;;;;2.42;1.90;;;;;;;20.89;28.06;101215.44;5012076;28;20030;-71
2022/04/19 11:54:32;;;;;;;2.40;2.17;;;;;;;20.91;28.29;101215.16;5010537;28;20466;-71
2022/04/19 11:57:00;;;;;;;2.72;2.20;;;;;;;20.93;28.22;101218.47;5012169;28;20061;-71
2022/04/19 11:59:44;;;;;;;2.30;2.10;;;;;;;20.95;28.65;101214.34;5011543;28;20034;-72
2022/04/19 12:02:16;;;;;;;2.20;2.00;;;;;;;20.95;28.17;101203.31;5011938;28;20094;-71